Time;durP1;ratioP1;P1;durP2;ratioP2;P2;SDS_P1;SDS_P2;PMS_P1;PMS_P2;Temp;Humidity;BMP_temperature;BMP_pressure;BME280_temperature;BME280_humidity;BME280_pressure;Samples;Min_cycle;Max_cycle;Signal;HPM_P1;HPM_P2
2021/03/20 00:01:06;;;;;;;33.72;25.60;;;;;;;;;;4993794;28;20129;-78
2021/03/20 00:03:32;;;;;;;25.27;16.40;;;;;;;;;;4993958;28;20026;-78
2021/03/20 00:05:58;;;;;;;47.88;32.35;;;;;;;;;;4993842;28;20562;-78
2021/03/20 00:08:25;;;;;;;46.30;32.65;;;;;;;;;;4993787;28;20026;-77
2021/03/20 00:10:53;;;;;;;40.28;28.88;;;;;;;;;;4993665;28;20358;-78
2021/03/20 00:13:20;;;;;;;39.00;29.67;;;;;;;;;;4993876;28;20470;-78
2021/03/20 00:15:46;;;;;;;29.35;20.25;;;;;;;;;;4993809;28;20030;-77
2021/03/20 00:18:13;;;;;;;24.70;17.50;;;;;;;;;;4993778;28;20030;-77
2021/03/20 00:20:40;;;;;;;21.70;16.05;;;;;;;;;;4993862;28;20389;-77
2021/03/20 00:23:07;;;;;;;24.90;17.05;;;;;;;;;;4993792;28;20051;-79
2021/03/20 00:25:34;;;;;;;27.33;17.77;;;;;;;;;;4993756;28;20041;-77
2021/03/20 00:28:00;;;;;;;28.85;18.98;;;;;;;;;;4993665;28;20031;-78
2021/03/20 00:30:27;;;;;;;31.02;23.77;;;;;;;;;;4993766;28;20429;-78
2021/03/20 00:32:53;;;;;;;40.25;28.10;;;;;;;;;;4993670;28;20106;-78
2021/03/20 00:35:20;;;;;;;29.02;22.23;;;;;;;;;;4993690;28;20378;-79
2021/03/20 00:37:46;;;;;;;33.75;23.35;;;;;;;;;;4993367;28;20034;-79
2021/03/20 00:40:14;;;;;;;32.65;24.25;;;;;;;;;;4993818;28;20054;-80
2021/03/20 00:42:41;;;;;;;33.25;23.85;;;;;;;;;;4994980;28;20041;-79
2021/03/20 00:45:08;;;;;;;27.85;20.38;;;;;;;;;;4997595;28;20378;-79
2021/03/20 00:47:34;;;;;;;24.25;15.77;;;;;;;;;;4997391;28;20050;-80
2021/03/20 00:50:00;;;;;;;22.30;14.70;;;;;;;;;;4997411;28;20031;-79
2021/03/20 00:52:26;;;;;;;22.55;14.57;;;;;;;;;;4997218;28;20026;-79
2021/03/20 00:54:52;;;;;;;20.58;16.08;;;;;;;;;;4997154;28;20030;-78
2021/03/20 00:57:19;;;;;;;28.25;20.83;;;;;;;;;;4997084;28;20026;-79
2021/03/20 00:59:47;;;;;;;30.40;21.45;;;;;;;;;;4997264;28;20058;-81
2021/03/20 01:02:13;;;;;;;27.38;20.25;;;;;;;;;;4997140;28;20033;-79
2021/03/20 01:04:39;;;;;;;27.38;18.73;;;;;;;;;;4997100;28;20034;-79
2021/03/20 01:07:05;;;;;;;28.25;19.17;;;;;;;;;;4996899;28;20502;-80
2021/03/20 01:09:32;;;;;;;29.77;20.27;;;;;;;;;;4996987;28;20077;-79
2021/03/20 01:11:59;;;;;;;27.58;19.50;;;;;;;;;;4996934;28;20034;-78
2021/03/20 01:14:25;;;;;;;23.95;16.27;;;;;;;;;;4996939;28;20030;-80
2021/03/20 01:16:51;;;;;;;24.15;17.02;;;;;;;;;;4996719;28;20110;-80
2021/03/20 01:19:17;;;;;;;25.77;17.55;;;;;;;;;;4996709;28;20030;-79
2021/03/20 01:21:43;;;;;;;24.00;16.92;;;;;;;;;;4996658;28;20046;-80
2021/03/20 01:24:09;;;;;;;39.97;26.58;;;;;;;;;;4996697;28;20109;-81
2021/03/20 01:26:36;;;;;;;24.42;18.02;;;;;;;;;;4996636;28;20041;-79
2021/03/20 01:29:02;;;;;;;21.40;15.30;;;;;;;;;;4996678;28;20029;-80
2021/03/20 01:31:28;;;;;;;20.63;14.68;;;;;;;;;;4996565;28;20363;-80
2021/03/20 01:33:54;;;;;;;21.52;15.93;;;;;;;;;;4996527;28;20466;-80
2021/03/20 01:36:20;;;;;;;19.35;14.80;;;;;;;;;;4996490;28;20038;-80
2021/03/20 01:38:46;;;;;;;20.65;14.02;;;;;;;;;;4996221;28;20038;-79
2021/03/20 01:41:14;;;;;;;21.75;15.18;;;;;;;;;;4996516;28;20505;-79
2021/03/20 01:43:40;;;;;;;26.73;16.65;;;;;;;;;;4996284;28;20030;-80
2021/03/20 01:46:25;;;;;;;25.63;18.42;;;;;;;;;;4996050;28;20105;-80
2021/03/20 01:48:51;;;;;;;19.88;15.45;;;;;;;;;;4996118;28;20105;-80
2021/03/20 01:51:17;;;;;;;26.23;16.75;;;;;;;;;;4996189;28;20034;-80
2021/03/20 01:53:55;;;;;;;20.70;15.25;;;;;;;;;;4996337;28;20037;-80
2021/03/20 01:56:23;;;;;;;26.33;17.58;;;;;;;;;;4996124;28;20022;-80
2021/03/20 01:58:50;;;;;;;24.90;17.45;;;;;;;;;;4995934;28;20469;-80
2021/03/20 02:01:25;;;;;;;22.40;15.60;;;;;;;;;;4995927;28;20030;-80
2021/03/20 02:03:51;;;;;;;;;;;;;;;;;;4996458;28;20037;-79
2021/03/20 02:06:17;;;;;;;19.83;14.30;;;;;;;;;;4996018;28;19996;-80
2021/03/20 02:08:44;;;;;;;19.13;13.70;;;;;;;;;;4995852;28;20469;-80
2021/03/20 02:11:19;;;;;;;19.10;13.70;;;;;;;;;;4995990;28;20058;-80
2021/03/20 02:14:05;;;;;;;21.45;15.45;;;;;;;;;;4995760;28;20033;-81
2021/03/20 02:16:49;;;;;;;21.33;15.40;;;;;;;;;;4995920;28;20057;-81
2021/03/20 02:19:31;;;;;;;21.77;15.10;;;;;;;;;;4995591;28;20105;-81
2021/03/20 02:22:01;;;;;;;20.08;15.10;;;;;;;;;;4995559;28;20062;-79
2021/03/20 02:24:56;;;;;;;21.80;15.27;;;;;;;;;;4994732;28;20050;-80
2021/03/20 02:27:41;;;;;;;21.40;13.90;;;;;;;;;;4983038;28;20508;-81
2021/03/20 02:30:07;;;;;;;21.42;15.88;;;;;;;;;;4995529;28;20026;-78
2021/03/20 02:32:52;;;;;;;21.35;15.23;;;;;;;;;;4995330;28;20057;-80
2021/03/20 02:35:30;;;;;;;22.60;15.85;;;;;;;;;;4995526;28;20038;-79
2021/03/20 02:38:05;;;;;;;18.75;14.18;;;;;;;;;;4995266;28;20030;-79
2021/03/20 02:40:36;;;;;;;19.67;15.30;;;;;;;;;;4995178;28;20393;-79
2021/03/20 02:43:05;;;;;;;18.73;13.73;;;;;;;;;;4993901;28;20049;-80
2021/03/20 02:45:35;;;;;;;19.92;14.18;;;;;;;;;;4995361;28;20042;-80
2021/03/20 02:48:08;;;;;;;19.92;13.63;;;;;;;;;;4994657;28;20049;-79
2021/03/20 02:50:54;;;;;;;20.13;13.90;;;;;;;;;;4995055;28;20474;-79
2021/03/20 02:53:26;;;;;;;17.88;13.18;;;;;;;;;;4984948;28;20053;-81
2021/03/20 02:55:55;;;;;;;20.05;13.45;;;;;;;;;;4994968;28;20030;-79
2021/03/20 02:58:24;;;;;;;17.92;13.35;;;;;;;;;;4994970;28;20030;-80
2021/03/20 03:01:08;;;;;;;17.00;13.50;;;;;;;;;;4994809;28;20035;-80
2021/03/20 03:03:37;;;;;;;17.42;13.15;;;;;;;;;;4994783;28;20073;-79
2021/03/20 03:06:08;;;;;;;18.38;13.18;;;;;;;;;;4994318;28;20056;-80
2021/03/20 03:08:42;;;;;;;18.27;13.23;;;;;;;;;;4994616;28;20378;-80
2021/03/20 03:11:11;;;;;;;19.30;13.77;;;;;;;;;;4994727;28;20022;-79
2021/03/20 03:13:39;;;;;;;17.95;12.95;;;;;;;;;;4977276;28;20030;-81
2021/03/20 03:16:09;;;;;;;18.70;13.60;;;;;;;;;;4994523;28;20026;-81
2021/03/20 03:18:38;;;;;;;18.10;12.65;;;;;;;;;;4994516;28;20037;-81
2021/03/20 03:21:06;;;;;;;17.40;13.05;;;;;;;;;;4994350;28;20030;-80
2021/03/20 03:23:35;;;;;;;18.40;14.27;;;;;;;;;;4994471;28;20061;-80
2021/03/20 03:26:05;;;;;;;17.70;13.77;;;;;;;;;;4994501;28;20030;-80
2021/03/20 03:28:31;;;;;;;23.10;13.77;;;;;;;;;;4994531;28;20037;-80
2021/03/20 03:30:59;;;;;;;16.80;12.88;;;;;;;;;;4993054;28;20022;-81
2021/03/20 03:33:27;;;;;;;17.35;13.63;;;;;;;;;;4994318;28;20022;-80
2021/03/20 03:35:56;;;;;;;16.85;12.73;;;;;;;;;;4994205;28;20030;-80
2021/03/20 03:38:25;;;;;;;17.90;13.15;;;;;;;;;;4994331;28;20034;-80
2021/03/20 03:40:57;;;;;;;17.67;12.98;;;;;;;;;;4994141;28;20038;-81
2021/03/20 03:43:23;;;;;;;16.67;13.27;;;;;;;;;;4994039;28;20048;-79
2021/03/20 03:45:49;;;;;;;19.15;13.27;;;;;;;;;;4994326;28;20034;-80
2021/03/20 03:48:17;;;;;;;17.83;13.10;;;;;;;;;;4993992;28;20046;-80
2021/03/20 03:50:43;;;;;;;17.23;12.82;;;;;;;;;;4994351;28;20030;-79
2021/03/20 03:53:10;;;;;;;19.23;14.00;;;;;;;;;;4994135;28;20062;-81
2021/03/20 03:55:37;;;;;;;17.17;13.75;;;;;;;;;;4993963;28;20030;-81
2021/03/20 03:58:24;;;;;;;17.23;13.18;;;;;;;;;;4994066;28;20054;-80
2021/03/20 04:00:56;;;;;;;17.33;13.48;;;;;;;;;;4993919;28;20469;-80
2021/03/20 04:03:41;;;;;;;16.55;13.63;;;;;;;;;;4992717;28;20456;-80
2021/03/20 04:06:30;;;;;;;17.90;14.00;;;;;;;;;;4993976;28;20030;-81
2021/03/20 04:09:15;;;;;;;20.52;14.70;;;;;;;;;;4986055;28;20038;-79
2021/03/20 04:11:44;;;;;;;17.27;14.00;;;;;;;;;;4993875;28;20030;-81
2021/03/20 04:14:15;;;;;;;19.70;13.25;;;;;;;;;;4994036;28;20042;-79
2021/03/20 04:16:48;;;;;;;20.00;13.85;;;;;;;;;;4993682;28;20119;-81
2021/03/20 04:19:20;;;;;;;17.13;13.25;;;;;;;;;;4997947;28;20082;-79
2021/03/20 04:21:52;;;;;;;18.20;14.13;;;;;;;;;;4996558;28;20030;-81
2021/03/20 04:24:27;;;;;;;18.13;14.70;;;;;;;;;;4997900;28;20066;-79
2021/03/20 04:27:00;;;;;;;20.58;14.15;;;;;;;;;;4998229;28;20441;-80
2021/03/20 04:29:44;;;;;;;19.48;13.73;;;;;;;;;;4997751;28;20432;-80
2021/03/20 04:32:10;;;;;;;;;;;;;;;;;;4998091;28;20029;-79
2021/03/20 04:34:57;;;;;;;18.27;12.68;;;;;;;;;;4997711;28;19906;-79
2021/03/20 04:37:25;;;;;;;20.42;14.57;;;;;;;;;;4997256;28;20499;-80
2021/03/20 04:39:54;;;;;;;20.65;14.45;;;;;;;;;;4997376;28;20073;-79
2021/03/20 04:42:22;;;;;;;20.75;15.45;;;;;;;;;;4997618;28;20404;-80
2021/03/20 04:44:49;;;;;;;19.70;15.38;;;;;;;;;;4996097;28;20031;-81
2021/03/20 04:47:19;;;;;;;21.38;14.90;;;;;;;;;;4997145;28;20041;-79
2021/03/20 04:49:49;;;;;;;19.20;13.93;;;;;;;;;;4996069;28;20488;-80
2021/03/20 04:52:21;;;;;;;20.98;15.40;;;;;;;;;;4996035;28;20030;-80
2021/03/20 04:54:47;;;;;;;22.67;16.23;;;;;;;;;;4996148;28;20041;-80
2021/03/20 04:57:32;;;;;;;23.63;17.13;;;;;;;;;;4997211;28;20056;-80
2021/03/20 05:00:17;;;;;;;20.73;15.05;;;;;;;;;;4997163;28;20034;-80
2021/03/20 05:02:49;;;;;;;23.20;16.08;;;;;;;;;;4997217;28;20069;-80
2021/03/20 05:05:18;;;;;;;19.55;14.82;;;;;;;;;;4995797;28;20031;-79
2021/03/20 05:07:44;;;;;;;22.77;16.17;;;;;;;;;;4997171;28;20026;-80
2021/03/20 05:10:18;;;;;;;23.23;16.65;;;;;;;;;;4996935;28;20026;-81
2021/03/20 05:12:46;;;;;;;22.90;16.50;;;;;;;;;;4996949;28;20465;-81
2021/03/20 05:15:27;;;;;;;20.58;14.50;;;;;;;;;;4996854;28;20030;-80
2021/03/20 05:17:53;;;;;;;19.70;15.63;;;;;;;;;;4996767;28;20030;-80
2021/03/20 05:20:19;;;;;;;23.42;16.75;;;;;;;;;;4996683;28;20066;-81
2021/03/20 05:22:45;;;;;;;24.13;16.40;;;;;;;;;;4996707;28;20390;-81
2021/03/20 05:25:15;;;;;;;23.77;16.88;;;;;;;;;;4996756;28;20479;-82
2021/03/20 05:27:41;;;;;;;24.42;16.77;;;;;;;;;;4996513;28;20026;-81
2021/03/20 05:30:08;;;;;;;27.45;19.10;;;;;;;;;;4995073;28;20451;-81
2021/03/20 05:32:35;;;;;;;31.70;19.60;;;;;;;;;;4996544;28;20061;-80
2021/03/20 05:35:02;;;;;;;25.15;17.20;;;;;;;;;;4996442;28;20027;-81
2021/03/20 05:37:30;;;;;;;27.38;19.83;;;;;;;;;;4996625;28;20031;-82
2021/03/20 05:39:56;;;;;;;22.35;17.35;;;;;;;;;;4996291;28;20038;-82
2021/03/20 05:42:27;;;;;;;23.35;16.50;;;;;;;;;;4996333;28;20058;-82
2021/03/20 05:44:53;;;;;;;26.73;18.65;;;;;;;;;;4996527;28;20161;-82
2021/03/20 05:47:38;;;;;;;24.50;16.73;;;;;;;;;;4996187;28;20169;-82
2021/03/20 05:50:17;;;;;;;26.63;18.63;;;;;;;;;;4996326;28;20034;-81
2021/03/20 05:52:53;;;;;;;25.65;18.70;;;;;;;;;;4996234;28;20454;-81
2021/03/20 05:55:31;;;;;;;22.02;17.08;;;;;;;;;;4996228;28;20034;-82
2021/03/20 05:58:04;;;;;;;25.73;19.05;;;;;;;;;;4996120;28;20030;-83
2021/03/20 06:00:49;;;;;;;26.87;19.83;;;;;;;;;;4995926;28;20034;-81
2021/03/20 06:03:15;;;;;;;;;;;;;;;;;;4996214;28;20026;-80
2021/03/20 06:05:52;;;;;;;23.45;16.92;;;;;;;;;;4995909;28;19964;-81
2021/03/20 06:08:18;;;;;;;25.58;19.08;;;;;;;;;;4994636;28;20033;-81
2021/03/20 06:10:48;;;;;;;24.60;16.17;;;;;;;;;;4995829;28;20503;-81
2021/03/20 06:13:17;;;;;;;23.55;18.50;;;;;;;;;;4995799;28;20045;-80
2021/03/20 06:15:55;;;;;;;24.33;18.45;;;;;;;;;;4995394;28;20113;-82
2021/03/20 06:18:41;;;;;;;27.83;19.50;;;;;;;;;;4995602;28;20033;-82
2021/03/20 06:21:26;;;;;;;26.33;18.75;;;;;;;;;;4995348;28;20485;-82
2021/03/20 06:23:52;;;;;;;;;;;;;;;;;;4996016;28;20113;-82
2021/03/20 06:26:24;;;;;;;31.58;20.92;;;;;;;;;;4995549;28;19989;-82
2021/03/20 06:28:59;;;;;;;31.23;22.17;;;;;;;;;;4995550;28;20468;-81
2021/03/20 06:31:33;;;;;;;33.53;23.05;;;;;;;;;;4995320;28;20034;-81
2021/03/20 06:34:03;;;;;;;28.75;20.05;;;;;;;;;;4995149;28;20030;-83
2021/03/20 06:36:49;;;;;;;29.73;21.15;;;;;;;;;;4994487;28;20682;-80
2021/03/20 06:39:15;;;;;;;31.52;21.70;;;;;;;;;;4994836;28;20446;-81
2021/03/20 06:41:49;;;;;;;30.55;21.10;;;;;;;;;;4994582;28;20034;-81
2021/03/20 06:44:37;;;;;;;32.05;23.08;;;;;;;;;;4995192;28;20525;-82
2021/03/20 06:47:11;;;;;;;30.02;22.77;;;;;;;;;;4994673;28;20134;-81
2021/03/20 06:49:43;;;;;;;30.10;21.20;;;;;;;;;;4994354;28;20058;-81
2021/03/20 06:52:15;;;;;;;33.53;23.85;;;;;;;;;;4994117;28;20034;-82
2021/03/20 06:54:41;;;;;;;34.58;25.38;;;;;;;;;;4994208;28;20035;-81
2021/03/20 06:57:07;;;;;;;29.92;21.88;;;;;;;;;;4994095;28;20026;-81
2021/03/20 06:59:33;;;;;;;29.98;20.60;;;;;;;;;;4994024;28;20034;-80
2021/03/20 07:02:02;;;;;;;29.30;20.90;;;;;;;;;;4994168;28;20489;-80
2021/03/20 07:04:34;;;;;;;32.65;25.15;;;;;;;;;;4993863;28;20135;-82
2021/03/20 07:07:03;;;;;;;26.10;16.90;;;;;;;;;;4993765;28;20105;-83
2021/03/20 07:09:30;;;;;;;45.53;30.73;;;;;;;;;;4993932;28;20105;-81
2021/03/20 07:12:07;;;;;;;31.70;23.60;;;;;;;;;;4976557;28;20168;-81
2021/03/20 07:14:53;;;;;;;32.72;24.08;;;;;;;;;;4993843;28;20030;-81
2021/03/20 07:17:25;;;;;;;35.22;25.35;;;;;;;;;;4993750;28;20121;-83
2021/03/20 07:20:06;;;;;;;30.75;21.58;;;;;;;;;;4993658;28;20034;-81
2021/03/20 07:22:37;;;;;;;29.35;20.15;;;;;;;;;;4994274;28;20382;-81
2021/03/20 07:25:16;;;;;;;32.13;22.95;;;;;;;;;;4993684;28;20485;-81
2021/03/20 07:27:42;;;;;;;35.53;23.33;;;;;;;;;;4993746;28;20037;-83
2021/03/20 07:30:28;;;;;;;33.63;22.38;;;;;;;;;;4993635;28;20026;-82
2021/03/20 07:32:54;;;;;;;35.35;25.65;;;;;;;;;;4993457;28;20034;-85
2021/03/20 07:35:20;;;;;;;34.22;26.38;;;;;;;;;;4993641;28;20045;-80
2021/03/20 07:37:47;;;;;;;33.65;24.48;;;;;;;;;;4993442;28;20049;-82
2021/03/20 07:40:30;;;;;;;35.60;26.00;;;;;;;;;;4993218;28;20047;-83
2021/03/20 07:43:15;;;;;;;33.65;26.00;;;;;;;;;;4993636;28;20444;-81
2021/03/20 07:45:41;;;;;;;;;;;;;;;;;;4992533;28;20404;-84
2021/03/20 07:48:15;;;;;;;31.60;21.92;;;;;;;;;;4966022;28;802301;-81
2021/03/20 07:50:46;;;;;;;28.55;20.35;;;;;;;;;;4993970;28;20034;-82
2021/03/20 07:53:14;;;;;;;32.33;22.67;;;;;;;;;;4993881;28;20500;-84
2021/03/20 07:56:19;;;;;;;32.30;23.73;;;;;;;;;;4992812;28;20023;-83
2021/03/20 07:58:46;;;;;;;39.67;27.17;;;;;;;;;;4934263;29;20054;-81
2021/03/20 08:01:15;;;;;;;32.33;22.42;;;;;;;;;;4931831;29;20043;-84
2021/03/20 08:03:50;;;;;;;41.17;29.67;;;;;;;;;;4963303;28;20045;-82
2021/03/20 08:06:20;;;;;;;35.97;25.25;;;;;;;;;;4991455;28;20105;-82
2021/03/20 08:08:47;;;;;;;35.40;25.52;;;;;;;;;;4992348;28;20034;-81
2021/03/20 08:11:27;;;;;;;40.13;27.90;;;;;;;;;;4992695;28;20516;-81
2021/03/20 08:13:57;;;;;;;35.25;24.80;;;;;;;;;;4975219;28;20030;-84
2021/03/20 08:16:24;;;;;;;40.63;28.80;;;;;;;;;;4992504;28;20029;-83
2021/03/20 08:18:53;;;;;;;38.17;25.85;;;;;;;;;;4992971;28;20039;-82
2021/03/20 08:21:31;;;;;;;37.15;24.20;;;;;;;;;;4992252;28;20042;-84
2021/03/20 08:24:16;;;;;;;47.45;31.52;;;;;;;;;;4992888;28;20033;-84
2021/03/20 08:27:01;;;;;;;48.50;32.40;;;;;;;;;;4992619;28;20389;-84
2021/03/20 08:29:27;;;;;;;41.20;27.77;;;;;;;;;;4992504;28;20023;-83
2021/03/20 08:32:11;;;;;;;37.38;25.17;;;;;;;;;;4992799;28;20026;-82
2021/03/20 08:35:05;;;;;;;42.00;28.58;;;;;;;;;;4992257;28;20039;-82
2021/03/20 08:37:37;;;;;;;34.28;23.77;;;;;;;;;;4993734;28;20065;-83
2021/03/20 08:40:10;;;;;;;38.70;27.90;;;;;;;;;;4993385;28;20504;-81
2021/03/20 08:42:48;;;;;;;31.98;22.63;;;;;;;;;;4990937;28;20034;-82
2021/03/20 08:45:23;;;;;;;33.13;23.15;;;;;;;;;;4992302;28;20030;-81
2021/03/20 08:48:08;;;;;;;31.77;21.63;;;;;;;;;;4992390;28;20150;-81
2021/03/20 08:50:34;;;;;;;;;;;;;;;;;;4992531;28;20023;-83
2021/03/20 08:53:07;;;;;;;32.42;22.65;;;;;;;;;;4992466;28;20328;-82
2021/03/20 08:55:41;;;;;;;39.17;27.20;;;;;;;;;;4992212;28;20069;-83
2021/03/20 08:58:21;;;;;;;35.47;24.45;;;;;;;;;;4992640;28;20057;-81
2021/03/20 09:00:50;;;;;;;32.80;24.48;;;;;;;;;;4992129;28;20033;-85
2021/03/20 09:03:18;;;;;;;36.78;26.10;;;;;;;;;;4992976;28;20061;-82
2021/03/20 09:05:46;;;;;;;34.90;23.92;;;;;;;;;;4995613;28;20109;-82
2021/03/20 09:08:17;;;;;;;36.80;25.48;;;;;;;;;;4978145;28;20374;-81
2021/03/20 09:11:01;;;;;;;34.72;26.13;;;;;;;;;;4995603;28;20026;-80
2021/03/20 09:13:48;;;;;;;40.85;29.98;;;;;;;;;;4995849;28;20453;-80
2021/03/20 09:16:23;;;;;;;31.70;22.20;;;;;;;;;;4995451;28;20460;-81
2021/03/20 09:18:49;;;;;;;31.80;23.95;;;;;;;;;;4995576;28;20076;-82
2021/03/20 09:21:16;;;;;;;34.35;26.73;;;;;;;;;;4995529;28;20042;-81
2021/03/20 09:24:00;;;;;;;34.67;24.60;;;;;;;;;;4995361;28;20026;-82
2021/03/20 09:26:45;;;;;;;36.45;25.80;;;;;;;;;;4995786;28;20065;-80
2021/03/20 09:29:17;;;;;;;31.90;23.85;;;;;;;;;;4995502;28;20034;-81
2021/03/20 09:32:02;;;;;;;35.47;28.25;;;;;;;;;;4995222;28;20027;-81
2021/03/20 09:34:28;;;;;;;;;;;;;;;;;;4996011;28;20026;-82
2021/03/20 09:36:54;;;;;;;33.47;24.65;;;;;;;;;;4994942;28;19932;-83
2021/03/20 09:39:39;;;;;;;30.92;22.33;;;;;;;;;;4995371;28;20030;-83
2021/03/20 09:42:05;;;;;;;;;;;;;;;;;;4995664;28;20042;-82
2021/03/20 09:44:32;;;;;;;30.50;21.50;;;;;;;;;;4995412;28;20380;-80
2021/03/20 09:46:59;;;;;;;30.92;21.67;;;;;;;;;;4994849;28;20042;-81
2021/03/20 09:49:25;;;;;;;27.63;19.80;;;;;;;;;;4995298;28;20061;-81
2021/03/20 09:51:54;;;;;;;47.05;34.65;;;;;;;;;;4994802;28;20030;-81
2021/03/20 09:54:28;;;;;;;34.08;24.90;;;;;;;;;;4995085;28;20034;-81
2021/03/20 09:56:56;;;;;;;36.27;27.53;;;;;;;;;;4994584;28;20176;-81
2021/03/20 09:59:31;;;;;;;32.90;24.58;;;;;;;;;;4977345;28;20034;-82
2021/03/20 10:02:21;;;;;;;28.48;21.55;;;;;;;;;;4994784;28;20042;-81
2021/03/20 10:04:47;;;;;;;31.33;23.65;;;;;;;;;;4994237;28;20124;-81
2021/03/20 10:07:26;;;;;;;31.50;24.15;;;;;;;;;;4994923;28;20031;-81
2021/03/20 10:09:55;;;;;;;32.88;23.77;;;;;;;;;;4994674;28;20025;-83
2021/03/20 10:12:22;;;;;;;28.35;19.42;;;;;;;;;;4994773;28;20026;-81
2021/03/20 10:15:09;;;;;;;30.08;22.10;;;;;;;;;;4993531;28;20030;-83
2021/03/20 10:17:55;;;;;;;38.88;27.27;;;;;;;;;;4994694;28;20500;-83
2021/03/20 10:20:21;;;;;;;27.17;21.15;;;;;;;;;;4994296;28;20034;-77
2021/03/20 10:22:52;;;;;;;29.23;20.85;;;;;;;;;;4994466;28;20065;-78
2021/03/20 10:25:19;;;;;;;36.05;25.55;;;;;;;;;;4976763;28;20030;-80
2021/03/20 10:27:50;;;;;;;25.63;18.60;;;;;;;;;;4994479;28;20057;-79
2021/03/20 10:30:16;;;;;;;27.55;21.15;;;;;;;;;;4994387;28;20084;-78
2021/03/20 10:33:01;;;;;;;34.05;24.63;;;;;;;;;;4994500;28;20103;-79
2021/03/20 10:35:27;;;;;;;;;;;;;;;;;;4994723;28;20049;-78
2021/03/20 10:37:54;;;;;;;44.45;29.67;;;;;;;;;;4993987;28;20369;-78
2021/03/20 10:40:29;;;;;;;41.38;31.27;;;;;;;;;;4976711;28;20397;-79
2021/03/20 10:43:01;;;;;;;29.33;22.27;;;;;;;;;;4993735;28;20026;-77
2021/03/20 10:45:32;;;;;;;30.25;22.73;;;;;;;;;;4994090;28;20034;-78
2021/03/20 10:48:02;;;;;;;28.17;21.27;;;;;;;;;;4976153;28;20050;-81
2021/03/20 10:50:31;;;;;;;29.98;22.75;;;;;;;;;;4993970;28;20474;-79
2021/03/20 10:52:59;;;;;;;32.92;23.60;;;;;;;;;;4993915;28;20049;-78
2021/03/20 10:55:30;;;;;;;30.52;22.58;;;;;;;;;;4993881;28;20034;-80
2021/03/20 10:57:57;;;;;;;27.70;20.95;;;;;;;;;;4993593;28;20026;-77
2021/03/20 11:00:25;;;;;;;36.83;27.88;;;;;;;;;;4993841;28;20038;-82
2021/03/20 11:02:51;;;;;;;28.30;21.17;;;;;;;;;;4993706;28;20102;-78
2021/03/20 11:05:25;;;;;;;28.70;22.17;;;;;;;;;;4993541;28;20038;-80
2021/03/20 11:08:14;;;;;;;35.58;25.98;;;;;;;;;;4993638;28;20542;-81
2021/03/20 11:10:45;;;;;;;30.70;23.65;;;;;;;;;;4964357;28;20046;-83
2021/03/20 11:13:17;;;;;;;34.75;25.38;;;;;;;;;;4993630;28;20089;-79
2021/03/20 11:15:47;;;;;;;26.73;20.92;;;;;;;;;;4993709;28;20031;-83
2021/03/20 11:18:20;;;;;;;29.90;21.63;;;;;;;;;;4993406;28;20066;-81
2021/03/20 11:20:46;;;;;;;25.98;20.08;;;;;;;;;;4993419;28;20034;-78
2021/03/20 11:23:31;;;;;;;25.63;19.95;;;;;;;;;;4993238;28;20081;-78
2021/03/20 11:26:08;;;;;;;27.50;21.50;;;;;;;;;;4992969;28;20041;-80
2021/03/20 11:28:35;;;;;;;26.30;19.80;;;;;;;;;;4993527;28;20386;-81
2021/03/20 11:31:02;;;;;;;27.58;21.40;;;;;;;;;;4993246;28;20077;-82
2021/03/20 11:33:29;;;;;;;33.25;24.23;;;;;;;;;;4993283;28;20436;-80
2021/03/20 11:35:56;;;;;;;28.15;21.50;;;;;;;;;;4993180;28;20026;-80
2021/03/20 11:38:24;;;;;;;29.02;21.60;;;;;;;;;;4993005;28;20042;-81
2021/03/20 11:41:09;;;;;;;25.30;19.67;;;;;;;;;;4993241;28;20093;-77
2021/03/20 11:43:45;;;;;;;27.67;20.88;;;;;;;;;;4992893;28;20034;-79
2021/03/20 11:46:12;;;;;;;30.27;24.17;;;;;;;;;;4992712;28;20066;-80
2021/03/20 11:48:57;;;;;;;31.00;23.80;;;;;;;;;;4993106;28;20065;-78
2021/03/20 11:51:26;;;;;;;26.98;20.92;;;;;;;;;;4992802;28;20845;-78
2021/03/20 11:53:54;;;;;;;27.08;21.27;;;;;;;;;;4992994;28;20106;-80
2021/03/20 11:56:29;;;;;;;26.50;20.52;;;;;;;;;;4992857;28;20109;-78
2021/03/20 11:58:59;;;;;;;26.98;20.83;;;;;;;;;;4993053;28;20037;-80
2021/03/20 12:01:25;;;;;;;25.70;19.45;;;;;;;;;;4992312;28;20041;-78
2021/03/20 12:03:52;;;;;;;24.50;19.00;;;;;;;;;;4993013;28;20023;-79
2021/03/20 12:06:18;;;;;;;23.80;18.85;;;;;;;;;;4992637;28;20085;-79
2021/03/20 12:08:51;;;;;;;25.23;19.15;;;;;;;;;;4992843;28;20435;-77
2021/03/20 12:11:19;;;;;;;24.25;19.95;;;;;;;;;;4992545;28;20053;-78
2021/03/20 12:14:04;;;;;;;24.75;18.42;;;;;;;;;;4975211;28;20026;-79
2021/03/20 12:16:33;;;;;;;27.00;20.52;;;;;;;;;;4992634;28;20133;-77
2021/03/20 12:19:19;;;;;;;23.73;18.70;;;;;;;;;;4992846;28;20110;-79
2021/03/20 12:21:51;;;;;;;25.08;19.30;;;;;;;;;;4992433;28;20034;-82
2021/03/20 12:24:40;;;;;;;22.67;17.23;;;;;;;;;;4992355;28;20433;-79
2021/03/20 12:27:25;;;;;;;21.13;18.05;;;;;;;;;;4975394;28;20110;-79
2021/03/20 12:29:53;;;;;;;31.67;23.38;;;;;;;;;;4992567;28;20437;-77
2021/03/20 12:32:19;;;;;;;30.13;22.40;;;;;;;;;;4991965;28;20026;-77
2021/03/20 12:34:45;;;;;;;24.70;18.63;;;;;;;;;;4992502;28;20109;-78
2021/03/20 12:37:17;;;;;;;32.15;23.08;;;;;;;;;;4974941;28;20034;-78
2021/03/20 12:39:43;;;;;;;21.75;16.42;;;;;;;;;;4995241;28;20038;-76
2021/03/20 12:42:09;;;;;;;23.13;17.55;;;;;;;;;;4996318;28;20105;-77
2021/03/20 12:44:47;;;;;;;21.88;17.80;;;;;;;;;;4996176;28;20481;-77
2021/03/20 12:47:15;;;;;;;20.40;17.10;;;;;;;;;;4995928;28;20093;-76
2021/03/20 12:49:41;;;;;;;21.58;16.45;;;;;;;;;;4995913;28;20030;-77
2021/03/20 12:52:09;;;;;;;20.95;17.00;;;;;;;;;;4996200;28;20027;-76
2021/03/20 12:54:39;;;;;;;21.48;16.10;;;;;;;;;;4995886;28;20462;-76
2021/03/20 12:57:05;;;;;;;20.10;16.20;;;;;;;;;;4996140;28;20038;-76
2021/03/20 12:59:32;;;;;;;21.65;16.98;;;;;;;;;;4995795;28;20092;-76
2021/03/20 13:01:58;;;;;;;25.73;20.10;;;;;;;;;;4996042;28;20084;-76
2021/03/20 13:04:24;;;;;;;24.13;17.38;;;;;;;;;;4995984;28;20026;-77
2021/03/20 13:06:51;;;;;;;20.80;16.75;;;;;;;;;;4995966;28;20358;-77
2021/03/20 13:09:18;;;;;;;20.73;15.40;;;;;;;;;;4995946;28;20035;-76
2021/03/20 13:11:44;;;;;;;26.70;19.67;;;;;;;;;;4995506;28;20041;-76
2021/03/20 13:14:10;;;;;;;29.73;21.70;;;;;;;;;;4995804;28;20058;-76
2021/03/20 13:16:36;;;;;;;23.05;19.05;;;;;;;;;;4995497;28;20030;-76
2021/03/20 13:19:03;;;;;;;20.67;15.95;;;;;;;;;;4978055;28;20027;-77
2021/03/20 13:21:30;;;;;;;25.25;19.80;;;;;;;;;;4995367;28;20046;-75
2021/03/20 13:23:57;;;;;;;33.03;23.67;;;;;;;;;;4995466;28;20042;-76
2021/03/20 13:26:23;;;;;;;22.25;17.63;;;;;;;;;;4995694;28;20433;-75
2021/03/20 13:28:49;;;;;;;19.63;16.33;;;;;;;;;;4995340;28;20026;-77
2021/03/20 13:31:15;;;;;;;26.00;19.58;;;;;;;;;;4995333;28;20525;-76
2021/03/20 13:33:42;;;;;;;23.38;19.05;;;;;;;;;;4995082;28;20038;-76
2021/03/20 13:36:10;;;;;;;23.92;18.42;;;;;;;;;;4995314;28;20037;-75
2021/03/20 13:38:36;;;;;;;23.80;19.35;;;;;;;;;;4995190;28;20037;-75
2021/03/20 13:41:02;;;;;;;23.52;19.73;;;;;;;;;;4995220;28;20042;-76
2021/03/20 13:43:28;;;;;;;27.98;22.67;;;;;;;;;;4995210;28;20026;-76
2021/03/20 13:45:55;;;;;;;20.80;16.67;;;;;;;;;;4995026;28;20038;-75
2021/03/20 13:48:21;;;;;;;27.25;21.25;;;;;;;;;;4995176;28;20390;-76
2021/03/20 13:50:48;;;;;;;26.20;20.52;;;;;;;;;;4994519;28;20053;-76
2021/03/20 13:53:21;;;;;;;22.40;17.60;;;;;;;;;;4995220;28;20038;-75
2021/03/20 13:56:06;;;;;;;25.35;20.38;;;;;;;;;;4994759;28;20023;-75
2021/03/20 13:58:32;;;;;;;22.30;17.85;;;;;;;;;;4995064;28;20049;-75
2021/03/20 14:00:58;;;;;;;18.48;14.52;;;;;;;;;;4994882;28;20401;-76
2021/03/20 14:03:25;;;;;;;26.50;20.20;;;;;;;;;;4996075;28;20029;-76
2021/03/20 14:05:52;;;;;;;20.27;16.15;;;;;;;;;;4995868;28;20037;-75
2021/03/20 14:08:19;;;;;;;33.38;25.73;;;;;;;;;;4996093;28;20022;-76
2021/03/20 14:10:45;;;;;;;28.05;22.80;;;;;;;;;;4997149;28;20026;-76
2021/03/20 14:13:12;;;;;;;27.05;21.63;;;;;;;;;;4995543;28;20037;-76
2021/03/20 14:15:39;;;;;;;21.20;17.40;;;;;;;;;;4995490;28;20521;-75
2021/03/20 14:18:08;;;;;;;21.88;16.77;;;;;;;;;;4995660;28;20031;-75
2021/03/20 14:20:39;;;;;;;28.05;22.95;;;;;;;;;;4995554;28;20040;-75
2021/03/20 14:23:06;;;;;;;22.95;19.23;;;;;;;;;;4995617;28;20105;-75
2021/03/20 14:25:32;;;;;;;23.45;17.75;;;;;;;;;;4995710;28;20022;-75
2021/03/20 14:27:58;;;;;;;25.30;22.63;;;;;;;;;;4995708;28;20117;-75
2021/03/20 14:30:24;;;;;;;17.75;15.65;;;;;;;;;;4995515;28;20061;-75
2021/03/20 14:32:51;;;;;;;19.65;16.02;;;;;;;;;;4995388;28;20026;-75
2021/03/20 14:35:17;;;;;;;18.02;13.50;;;;;;;;;;4995550;28;20034;-75
2021/03/20 14:37:44;;;;;;;18.48;14.73;;;;;;;;;;4995401;28;20557;-76
2021/03/20 14:40:12;;;;;;;17.95;15.10;;;;;;;;;;4995433;28;20097;-75
2021/03/20 14:42:38;;;;;;;22.90;18.98;;;;;;;;;;4995240;28;20116;-76
2021/03/20 14:45:05;;;;;;;26.58;21.50;;;;;;;;;;4995312;28;20030;-76